createdAt,value
2018-02-17T00:00:08.000Z,101320
2018-02-17T00:02:08.000Z,101324
2018-02-17T00:03:08.000Z,101325
2018-02-17T00:05:08.000Z,101324
2018-02-17T00:07:08.000Z,101329
2018-02-17T00:08:08.000Z,101329
2018-02-17T00:10:08.000Z,101328
2018-02-17T00:12:08.000Z,101322
2018-02-17T00:13:53.000Z,101312
2018-02-17T00:15:08.000Z,101312
2018-02-17T00:17:08.000Z,101314
2018-02-17T00:18:53.000Z,101313
2018-02-17T00:20:08.000Z,101313
2018-02-17T00:22:08.000Z,101315
2018-02-17T00:24:08.000Z,101299
2018-02-17T00:25:08.000Z,101295
2018-02-17T00:26:08.000Z,101291
2018-02-17T00:28:08.000Z,101290
2018-02-17T00:29:38.000Z,101290
2018-02-17T00:31:08.000Z,101291
2018-02-17T00:33:08.000Z,101277
2018-02-17T00:34:08.000Z,101285
2018-02-17T00:35:53.000Z,101282
2018-02-17T00:37:08.000Z,101283
2018-02-17T00:38:53.000Z,101279
2018-02-17T00:40:08.000Z,101282
2018-02-17T00:41:53.000Z,101278
2018-02-17T00:43:08.000Z,101268
2018-02-17T00:45:08.000Z,101269
2018-02-17T00:47:08.000Z,101265
2018-02-17T00:48:08.000Z,101263
2018-02-17T00:50:08.000Z,101261
2018-02-17T00:51:08.000Z,101260
2018-02-17T00:52:08.000Z,101257
2018-02-17T00:54:08.000Z,101260
2018-02-17T00:56:08.000Z,101259
2018-02-17T00:57:08.000Z,101259
2018-02-17T00:58:08.000Z,101256
2018-02-17T01:00:08.000Z,101259
2018-02-17T01:02:08.000Z,101255
2018-02-17T01:04:08.000Z,101250
2018-02-17T01:05:53.000Z,101245
2018-02-17T01:07:08.000Z,101252
2018-02-17T01:09:08.000Z,101246
2018-02-17T01:11:08.000Z,101245
2018-02-17T01:12:08.000Z,101247
2018-02-17T01:13:08.000Z,101244
2018-02-17T01:15:08.000Z,101240
2018-02-17T01:17:08.000Z,101235
2018-02-17T01:19:08.000Z,101229
2018-02-17T01:20:08.000Z,101229
2018-02-17T01:22:08.000Z,101226
2018-02-17T01:23:53.000Z,101224
2018-02-17T01:25:08.000Z,101225
2018-02-17T01:27:08.000Z,101219
2018-02-17T01:28:08.000Z,101217
2018-02-17T01:30:08.000Z,101213
2018-02-17T01:32:08.000Z,101208
2018-02-17T01:34:08.000Z,101200
2018-02-17T01:36:08.000Z,101194
2018-02-17T01:38:08.000Z,101197
2018-02-17T01:39:53.000Z,101189
2018-02-17T01:41:08.000Z,101187
2018-02-17T01:42:53.000Z,101188
2018-02-17T01:44:08.000Z,101190
2018-02-17T01:46:08.000Z,101195
2018-02-17T01:48:08.000Z,101191
2018-02-17T01:50:08.000Z,101186
2018-02-17T01:51:53.000Z,101188
2018-02-17T01:52:53.000Z,101191
2018-02-17T01:54:08.000Z,101192
2018-02-17T01:55:53.000Z,101187
2018-02-17T01:57:08.000Z,101176
2018-02-17T01:59:08.000Z,101180
2018-02-17T02:00:08.000Z,101178
2018-02-17T02:02:08.000Z,101187
2018-02-17T02:04:08.000Z,101191
2018-02-17T02:05:08.000Z,101189
2018-02-17T02:06:53.000Z,101183
2018-02-17T02:08:08.000Z,101181
2018-02-17T02:10:08.000Z,101180
2018-02-17T02:12:08.000Z,101186
2018-02-17T02:14:08.000Z,101190
2018-02-17T02:16:08.000Z,101191
2018-02-17T02:17:53.000Z,101189
2018-02-17T02:19:08.000Z,101189
2018-02-17T02:20:53.000Z,101181
2018-02-17T02:22:08.000Z,101177
2018-02-17T02:24:08.000Z,101179
2018-02-17T02:26:08.000Z,101187
2018-02-17T02:28:08.000Z,101189
2018-02-17T02:29:08.000Z,101185
2018-02-17T02:31:08.000Z,101188
2018-02-17T02:32:08.000Z,101185
2018-02-17T02:33:08.000Z,101180
2018-02-17T02:35:08.000Z,101173
2018-02-17T02:37:08.000Z,101177
2018-02-17T02:38:53.000Z,101170
2018-02-17T02:40:08.000Z,101170
2018-02-17T02:42:08.000Z,101175
2018-02-17T02:43:08.000Z,101178
2018-02-17T02:45:08.000Z,101178
2018-02-17T02:47:08.000Z,101171
2018-02-17T02:48:53.000Z,101168
2018-02-17T02:50:08.000Z,101171
2018-02-17T02:51:08.000Z,101172
2018-02-17T02:53:08.000Z,101174
2018-02-17T02:54:38.000Z,101167
2018-02-17T02:56:08.000Z,101168
2018-02-17T02:58:08.000Z,101164
2018-02-17T03:00:08.000Z,101168
2018-02-17T03:01:08.000Z,101172
2018-02-17T03:03:08.000Z,101167
2018-02-17T03:04:08.000Z,101163
2018-02-17T03:06:08.000Z,101167
2018-02-17T03:07:08.000Z,101169
2018-02-17T03:08:38.000Z,101169
2018-02-17T03:10:08.000Z,101167
2018-02-17T03:12:08.000Z,101164
2018-02-17T03:14:08.000Z,101163
2018-02-17T03:16:08.000Z,101167
2018-02-17T03:17:08.000Z,101165
2018-02-17T03:19:08.000Z,101164
2018-02-17T03:20:37.000Z,101161
2018-02-17T03:22:08.000Z,101158
2018-02-17T03:23:08.000Z,101159
2018-02-17T03:25:08.000Z,101158
2018-02-17T03:26:08.000Z,101154
2018-02-17T03:28:08.000Z,101154
2018-02-17T03:29:08.000Z,101152
2018-02-17T03:30:53.000Z,101149
2018-02-17T03:32:08.000Z,101147
2018-02-17T03:33:08.000Z,101147
2018-02-17T03:34:08.000Z,101144
2018-02-17T03:36:08.000Z,101144
2018-02-17T03:37:08.000Z,101138
2018-02-17T03:39:08.000Z,101137
2018-02-17T03:40:08.000Z,101133
2018-02-17T03:42:08.000Z,101136
2018-02-17T03:44:08.000Z,101133
2018-02-17T03:46:08.000Z,101130
2018-02-17T03:47:08.000Z,101135
2018-02-17T03:49:08.000Z,101130
2018-02-17T03:51:08.000Z,101124
2018-02-17T03:52:53.000Z,101122
2018-02-17T03:54:08.000Z,101124
2018-02-17T03:55:53.000Z,101125
2018-02-17T03:57:08.000Z,101122
2018-02-17T03:58:53.000Z,101120
2018-02-17T04:00:08.000Z,101119
2018-02-17T04:01:08.000Z,101120
2018-02-17T04:02:08.000Z,101128
2018-02-17T04:04:08.000Z,101123
2018-02-17T04:05:37.000Z,101111
2018-02-17T04:07:08.000Z,101106
2018-02-17T04:09:08.000Z,101107
2018-02-17T04:11:08.000Z,101104
2018-02-17T04:12:08.000Z,101104
2018-02-17T04:14:08.000Z,101112
2018-02-17T04:15:38.000Z,101112
2018-02-17T04:17:08.000Z,101107
2018-02-17T04:19:08.000Z,101098
2018-02-17T04:20:53.000Z,101102
2018-02-17T04:22:08.000Z,101094
2018-02-17T04:24:08.000Z,101085
2018-02-17T04:25:08.000Z,101093
2018-02-17T04:27:08.000Z,101094
2018-02-17T04:29:08.000Z,101092
2018-02-17T04:31:08.000Z,101086
2018-02-17T04:33:08.000Z,101084
2018-02-17T04:34:08.000Z,101072
2018-02-17T04:36:08.000Z,101077
2018-02-17T04:37:53.000Z,101075
2018-02-17T04:39:08.000Z,101081
2018-02-17T04:40:08.000Z,101083
2018-02-17T04:42:08.000Z,101080
2018-02-17T04:44:08.000Z,101075
2018-02-17T04:45:08.000Z,101074
2018-02-17T04:47:08.000Z,101066
2018-02-17T04:49:08.000Z,101060
2018-02-17T04:51:08.000Z,101064
2018-02-17T04:53:08.000Z,101062
2018-02-17T04:55:08.000Z,101056
2018-02-17T04:56:53.000Z,101058
2018-02-17T04:58:08.000Z,101053
2018-02-17T04:59:08.000Z,101051
2018-02-17T05:01:08.000Z,101055
2018-02-17T05:03:08.000Z,101049
2018-02-17T05:05:08.000Z,101048
2018-02-17T05:07:08.000Z,101041
2018-02-17T05:08:08.000Z,101047
2018-02-17T05:09:08.000Z,101042
2018-02-17T05:11:08.000Z,101038
2018-02-17T05:13:08.000Z,101040
2018-02-17T05:14:08.000Z,101034
2018-02-17T05:16:08.000Z,101029
2018-02-17T05:17:08.000Z,101031
2018-02-17T05:19:08.000Z,101030
2018-02-17T05:21:08.000Z,101026
2018-02-17T05:23:08.000Z,101029
2018-02-17T05:25:08.000Z,101029
2018-02-17T05:26:53.000Z,101029
2018-02-17T05:28:08.000Z,101032
2018-02-17T05:29:08.000Z,101027
2018-02-17T05:31:08.000Z,101022
2018-02-17T05:33:08.000Z,101020
2018-02-17T05:34:08.000Z,101014
2018-02-17T05:36:08.000Z,101010
2018-02-17T05:38:08.000Z,101011
2018-02-17T05:40:08.000Z,101012
2018-02-17T05:41:53.000Z,101011
2018-02-17T05:43:08.000Z,101012
2018-02-17T05:45:08.000Z,101014
2018-02-17T05:46:53.000Z,101013
2018-02-17T05:48:08.000Z,101019
2018-02-17T05:49:08.000Z,101024
2018-02-17T05:50:53.000Z,101021
2018-02-17T05:51:53.000Z,101023
2018-02-17T05:53:08.000Z,101025
2018-02-17T05:54:08.000Z,101022
2018-02-17T05:56:08.000Z,101022
2018-02-17T05:57:08.000Z,101015
2018-02-17T05:59:08.000Z,101018
2018-02-17T06:01:08.000Z,101019
2018-02-17T06:03:08.000Z,101018
2018-02-17T06:04:08.000Z,101023
2018-02-17T06:06:09.000Z,101026
2018-02-17T06:08:08.000Z,101024
2018-02-17T06:10:08.000Z,101030
2018-02-17T06:11:08.000Z,101029
2018-02-17T06:13:08.000Z,101033
2018-02-17T06:14:08.000Z,101026
2018-02-17T06:15:08.000Z,101031
2018-02-17T06:16:53.000Z,101031
2018-02-17T06:18:08.000Z,101030
2018-02-17T06:20:08.000Z,101029
2018-02-17T06:21:08.000Z,101027
2018-02-17T06:22:53.000Z,101021
2018-02-17T06:24:08.000Z,101017
2018-02-17T06:25:08.000Z,101015
2018-02-17T06:27:08.000Z,101013
2018-02-17T06:28:08.000Z,101014
2018-02-17T06:30:08.000Z,101013
2018-02-17T06:31:08.000Z,101008
2018-02-17T06:33:08.000Z,101016
2018-02-17T06:35:08.000Z,101019
2018-02-17T06:36:08.000Z,101016
2018-02-17T06:37:08.000Z,101017
2018-02-17T06:38:38.000Z,101014
2018-02-17T06:40:08.000Z,101011
2018-02-17T06:42:08.000Z,101010
2018-02-17T06:43:53.000Z,101002
2018-02-17T06:45:08.000Z,100999
2018-02-17T06:47:08.000Z,100990
2018-02-17T06:48:08.000Z,100986
2018-02-17T06:50:08.000Z,100985
2018-02-17T06:51:08.000Z,100978
2018-02-17T06:53:08.000Z,100976
2018-02-17T06:55:08.000Z,100978
2018-02-17T06:56:53.000Z,100975
2018-02-17T06:58:08.000Z,100982
2018-02-17T06:59:08.000Z,100974
2018-02-17T07:01:08.000Z,100969
2018-02-17T07:03:08.000Z,100972
2018-02-17T07:04:08.000Z,100975
2018-02-17T07:05:08.000Z,100977
2018-02-17T07:07:08.000Z,100975
2018-02-17T07:09:08.000Z,100985
2018-02-17T07:10:53.000Z,100985
2018-02-17T07:12:08.000Z,100984
2018-02-17T07:13:08.000Z,100986
2018-02-17T07:15:08.000Z,100989
2018-02-17T07:16:08.000Z,100984
2018-02-17T07:18:08.000Z,100984
2018-02-17T07:19:08.000Z,100978
2018-02-17T07:20:53.000Z,100982
2018-02-17T07:22:08.000Z,100985
2018-02-17T07:23:53.000Z,100978
2018-02-17T07:25:08.000Z,100975
2018-02-17T07:26:08.000Z,100972
2018-02-17T07:28:08.000Z,100975
2018-02-17T07:29:08.000Z,100973
2018-02-17T07:30:53.000Z,100976
2018-02-17T07:32:08.000Z,100978
2018-02-17T07:33:53.000Z,100983
2018-02-17T07:35:08.000Z,100978
2018-02-17T07:37:08.000Z,100977
2018-02-17T07:38:08.000Z,100972
2018-02-17T07:39:08.000Z,100976
2018-02-17T07:41:08.000Z,100974
2018-02-17T07:43:08.000Z,100972
2018-02-17T07:44:08.000Z,100973
2018-02-17T07:45:53.000Z,100971
2018-02-17T07:48:08.000Z,100973
2018-02-17T07:49:08.000Z,100973
2018-02-17T07:51:08.000Z,100975
2018-02-17T07:52:08.000Z,100972
2018-02-17T07:54:08.000Z,100969
2018-02-17T07:55:53.000Z,100966
2018-02-17T07:57:08.000Z,100968
2018-02-17T07:59:08.000Z,100969
2018-02-17T08:01:08.000Z,100967
2018-02-17T08:03:08.000Z,100962
2018-02-17T08:05:08.000Z,100965
2018-02-17T08:07:08.000Z,100960
2018-02-17T08:08:08.000Z,100959
2018-02-17T08:10:08.000Z,100956
2018-02-17T08:11:08.000Z,100951
2018-02-17T08:13:08.000Z,100955
2018-02-17T08:14:08.000Z,100956
2018-02-17T08:15:53.000Z,100952
2018-02-17T08:17:08.000Z,100954
2018-02-17T08:19:08.000Z,100954
2018-02-17T08:21:08.000Z,100962
2018-02-17T08:23:08.000Z,100961
2018-02-17T08:25:08.000Z,100966
2018-02-17T08:26:08.000Z,100960
2018-02-17T08:27:53.000Z,100964
2018-02-17T08:29:08.000Z,100960
2018-02-17T08:30:08.000Z,100965
2018-02-17T08:32:08.000Z,100960
2018-02-17T08:33:08.000Z,100959
2018-02-17T08:35:08.000Z,100963
2018-02-17T08:36:08.000Z,100961
2018-02-17T08:38:08.000Z,100957
2018-02-17T08:39:08.000Z,100958
2018-02-17T08:41:08.000Z,100956
2018-02-17T08:42:08.000Z,100957
2018-02-17T08:44:08.000Z,100959
2018-02-17T08:46:08.000Z,100956
2018-02-17T08:47:53.000Z,100949
2018-02-17T08:49:08.000Z,100949
2018-02-17T08:51:08.000Z,100947
2018-02-17T08:52:53.000Z,100953
2018-02-17T08:53:53.000Z,100943
2018-02-17T08:55:08.000Z,100944
2018-02-17T08:56:08.000Z,100944
2018-02-17T08:57:08.000Z,100946
2018-02-17T08:59:08.000Z,100947
2018-02-17T09:00:53.000Z,100945
2018-02-17T09:02:08.000Z,100950
2018-02-17T09:03:37.000Z,100955
2018-02-17T09:05:08.000Z,100951
2018-02-17T09:07:08.000Z,100952
2018-02-17T09:08:08.000Z,100956
2018-02-17T09:10:08.000Z,100956
2018-02-17T09:12:08.000Z,100950
2018-02-17T09:13:08.000Z,100959
2018-02-17T09:14:53.000Z,100956
2018-02-17T09:16:08.000Z,100956
2018-02-17T09:18:08.000Z,100952
2018-02-17T09:19:08.000Z,100953
2018-02-17T09:21:08.000Z,100945
2018-02-17T09:22:08.000Z,100948
2018-02-17T09:23:08.000Z,100945
2018-02-17T09:24:53.000Z,100948
2018-02-17T09:26:08.000Z,100946
2018-02-17T09:28:08.000Z,100949
2018-02-17T09:29:08.000Z,100946
2018-02-17T09:31:08.000Z,100953
2018-02-17T09:33:08.000Z,100952
2018-02-17T09:35:08.000Z,100958
2018-02-17T09:36:53.000Z,100959
2018-02-17T09:38:08.000Z,100959
2018-02-17T09:39:08.000Z,100959
2018-02-17T09:41:08.000Z,100958
2018-02-17T09:42:53.000Z,100951
2018-02-17T09:44:08.000Z,100956
2018-02-17T09:45:08.000Z,100954
2018-02-17T09:47:08.000Z,100962
2018-02-17T09:49:08.000Z,100962
2018-02-17T09:50:53.000Z,100961
2018-02-17T09:52:08.000Z,100964
2018-02-17T09:53:08.000Z,100960
2018-02-17T09:55:08.000Z,100963
2018-02-17T09:56:08.000Z,100959
2018-02-17T09:57:08.000Z,100961
2018-02-17T09:59:08.000Z,100968
2018-02-17T10:00:08.000Z,100967
2018-02-17T10:01:53.000Z,100969
2018-02-17T10:03:08.000Z,100970
2018-02-17T10:04:08.000Z,100962
2018-02-17T10:06:08.000Z,100960
2018-02-17T10:07:08.000Z,100968
2018-02-17T10:08:08.000Z,100963
2018-02-17T10:09:53.000Z,100966
2018-02-17T10:10:53.000Z,100965
2018-02-17T10:12:08.000Z,100962
2018-02-17T10:13:08.000Z,100960
2018-02-17T10:15:08.000Z,100964
2018-02-17T10:16:08.000Z,100960
2018-02-17T10:18:08.000Z,100959
2018-02-17T10:19:08.000Z,100963
2018-02-17T10:20:08.000Z,100965
2018-02-17T10:22:08.000Z,100969
2018-02-17T10:23:08.000Z,100966
2018-02-17T10:25:08.000Z,100964
2018-02-17T10:27:08.000Z,100963
2018-02-17T10:28:08.000Z,100967
2018-02-17T10:30:08.000Z,100963
2018-02-17T10:31:08.000Z,100955
2018-02-17T10:32:08.000Z,100962
2018-02-17T10:33:08.000Z,100950
2018-02-17T10:34:08.000Z,100953
2018-02-17T10:35:08.000Z,100953
2018-02-17T10:37:08.000Z,100962
2018-02-17T10:39:08.000Z,100972
2018-02-17T10:40:08.000Z,100967
2018-02-17T10:41:08.000Z,100973
2018-02-17T10:43:08.000Z,100979
2018-02-17T10:44:08.000Z,100976
2018-02-17T10:46:08.000Z,100973
2018-02-17T10:48:08.000Z,100975
2018-02-17T10:49:08.000Z,100974
2018-02-17T10:51:08.000Z,100975
2018-02-17T10:52:08.000Z,100975
2018-02-17T10:53:08.000Z,100978
2018-02-17T10:55:08.000Z,100969
2018-02-17T10:57:08.000Z,100968
2018-02-17T10:58:08.000Z,100972
2018-02-17T10:59:53.000Z,100976
2018-02-17T11:01:08.000Z,100969
2018-02-17T11:03:08.000Z,100969
2018-02-17T11:05:08.000Z,100970
2018-02-17T11:07:08.000Z,100978
2018-02-17T11:09:08.000Z,100978
2018-02-17T11:11:08.000Z,100967
2018-02-17T11:13:08.000Z,100968
2018-02-17T11:15:08.000Z,100967
2018-02-17T11:16:08.000Z,100968
2018-02-17T11:18:08.000Z,100959
2018-02-17T11:19:08.000Z,100959
2018-02-17T11:21:08.000Z,100953
2018-02-17T11:23:08.000Z,100955
2018-02-17T11:25:08.000Z,100959
2018-02-17T11:26:08.000Z,100955
2018-02-17T11:28:08.000Z,100959
2018-02-17T11:30:08.000Z,100961
2018-02-17T11:31:37.000Z,100956
2018-02-17T11:33:08.000Z,100950
2018-02-17T11:35:08.000Z,100945
2018-02-17T11:37:08.000Z,100951
2018-02-17T11:39:08.000Z,100950
2018-02-17T11:41:09.000Z,100951
2018-02-17T11:43:09.000Z,100952
2018-02-17T11:44:09.000Z,100952
2018-02-17T11:45:09.000Z,100954
2018-02-17T11:47:09.000Z,100956
2018-02-17T11:48:09.000Z,100955
2018-02-17T11:50:09.000Z,100956
2018-02-17T11:51:53.000Z,100957
2018-02-17T11:53:09.000Z,100958
2018-02-17T11:54:09.000Z,100954
2018-02-17T11:56:09.000Z,100952
2018-02-17T11:58:09.000Z,100959
2018-02-17T11:59:09.000Z,100949
2018-02-17T12:00:09.000Z,100954
2018-02-17T12:02:09.000Z,100953
2018-02-17T12:03:53.000Z,100947
2018-02-17T12:05:09.000Z,100950
2018-02-17T12:07:09.000Z,100951
2018-02-17T12:08:09.000Z,100944
2018-02-17T12:09:09.000Z,100942
2018-02-17T12:10:09.000Z,100947
2018-02-17T12:11:09.000Z,100944
2018-02-17T12:13:09.000Z,100947
2018-02-17T12:15:09.000Z,100950
2018-02-17T12:16:09.000Z,100950
2018-02-17T12:18:09.000Z,100956
2018-02-17T12:19:09.000Z,100946
2018-02-17T12:20:53.000Z,100946
2018-02-17T12:22:09.000Z,100950
2018-02-17T12:24:09.000Z,100946
2018-02-17T12:26:09.000Z,100943
2018-02-17T12:27:09.000Z,100948
2018-02-17T12:29:09.000Z,100949
2018-02-17T12:31:09.000Z,100949
2018-02-17T12:33:09.000Z,100955
2018-02-17T12:35:09.000Z,100952
2018-02-17T12:36:09.000Z,100951
2018-02-17T12:38:09.000Z,100954
2018-02-17T12:39:53.000Z,100961
2018-02-17T12:41:09.000Z,100961
2018-02-17T12:43:09.000Z,100965
2018-02-17T12:44:09.000Z,100963
2018-02-17T12:45:09.000Z,100959
2018-02-17T12:47:09.000Z,100960
2018-02-17T12:48:09.000Z,100952
2018-02-17T12:50:09.000Z,100958
2018-02-17T12:51:53.000Z,100948
2018-02-17T12:52:53.000Z,100956
2018-02-17T12:54:09.000Z,100950
2018-02-17T12:56:09.000Z,100952
2018-02-17T12:58:09.000Z,100955
2018-02-17T13:00:09.000Z,100951
2018-02-17T13:02:09.000Z,100956
2018-02-17T13:04:09.000Z,100952
2018-02-17T13:06:09.000Z,100950
2018-02-17T13:07:53.000Z,100952
2018-02-17T13:09:09.000Z,100946
2018-02-17T13:10:53.000Z,100945
2018-02-17T13:12:09.000Z,100942
2018-02-17T13:14:09.000Z,100947
2018-02-17T13:15:53.000Z,100940
2018-02-17T13:17:09.000Z,100946
2018-02-17T13:19:09.000Z,100948
2018-02-17T13:21:09.000Z,100943
2018-02-17T13:23:09.000Z,100947
2018-02-17T13:25:09.000Z,100955
2018-02-17T13:27:09.000Z,100961
2018-02-17T13:28:09.000Z,100965
2018-02-17T13:30:09.000Z,100962
2018-02-17T13:32:09.000Z,100962
2018-02-17T13:33:09.000Z,100960
2018-02-17T13:35:09.000Z,100953
2018-02-17T13:36:09.000Z,100956
2018-02-17T13:37:53.000Z,100952
2018-02-17T13:39:09.000Z,100957
2018-02-17T13:40:53.000Z,100966
2018-02-17T13:42:09.000Z,100953
2018-02-17T13:44:09.000Z,100974
2018-02-17T13:46:09.000Z,100972
2018-02-17T13:47:09.000Z,100972
2018-02-17T13:48:08.000Z,100974
2018-02-17T13:50:08.000Z,100977
2018-02-17T13:51:08.000Z,100980
2018-02-17T13:53:08.000Z,100982
2018-02-17T13:54:08.000Z,100984
2018-02-17T13:56:08.000Z,100979
2018-02-17T13:57:53.000Z,100973
2018-02-17T13:59:08.000Z,100977
2018-02-17T14:01:08.000Z,100974
2018-02-17T14:02:08.000Z,100978
2018-02-17T14:04:08.000Z,100980
2018-02-17T14:05:08.000Z,100973
2018-02-17T14:07:08.000Z,100976
2018-02-17T14:09:08.000Z,100983
2018-02-17T14:11:08.000Z,100989
2018-02-17T14:12:53.000Z,100987
2018-02-17T14:14:08.000Z,100985
2018-02-17T14:15:08.000Z,100990
2018-02-17T14:16:08.000Z,100991
2018-02-17T14:18:08.000Z,100988
2018-02-17T14:20:08.000Z,100988
2018-02-17T14:22:08.000Z,100989
2018-02-17T14:24:08.000Z,100990
2018-02-17T14:25:08.000Z,100994
2018-02-17T14:27:08.000Z,100991
2018-02-17T14:28:08.000Z,100991
2018-02-17T14:30:08.000Z,100991
2018-02-17T14:31:08.000Z,100989
2018-02-17T14:33:08.000Z,100996
2018-02-17T14:34:08.000Z,100986
2018-02-17T14:36:08.000Z,100994
2018-02-17T14:38:08.000Z,101000
2018-02-17T14:39:53.000Z,101004
2018-02-17T14:41:08.000Z,100998
2018-02-17T14:42:53.000Z,100999
2018-02-17T14:45:08.000Z,100996
2018-02-17T14:46:53.000Z,100994
2018-02-17T14:48:08.000Z,100997
2018-02-17T14:50:08.000Z,100989
2018-02-17T14:51:08.000Z,100990
2018-02-17T14:52:08.000Z,100990
2018-02-17T14:54:08.000Z,100996
2018-02-17T14:55:53.000Z,100995
2018-02-17T14:57:08.000Z,100993
2018-02-17T14:59:08.000Z,100993
2018-02-17T15:01:08.000Z,100997
2018-02-17T15:02:53.000Z,100995
2018-02-17T15:04:08.000Z,100996
2018-02-17T15:05:38.000Z,100992
2018-02-17T15:07:08.000Z,100999
2018-02-17T15:09:08.000Z,101000
2018-02-17T15:11:08.000Z,101001
2018-02-17T15:12:08.000Z,101003
2018-02-17T15:13:53.000Z,101002
2018-02-17T15:16:08.000Z,101008
2018-02-17T15:17:08.000Z,101002
2018-02-17T15:18:53.000Z,101005
2018-02-17T15:20:08.000Z,101005
2018-02-17T15:21:53.000Z,100993
2018-02-17T15:23:08.000Z,100994
2018-02-17T15:25:08.000Z,100999
2018-02-17T15:27:08.000Z,100996
2018-02-17T15:28:08.000Z,100998
2018-02-17T15:30:08.000Z,101000
2018-02-17T15:31:08.000Z,101003
2018-02-17T15:33:08.000Z,101000
2018-02-17T15:34:53.000Z,100999
2018-02-17T15:36:08.000Z,101005
2018-02-17T15:38:08.000Z,101005
2018-02-17T15:39:08.000Z,101000
2018-02-17T15:40:53.000Z,101003
2018-02-17T15:42:08.000Z,101006
2018-02-17T15:43:53.000Z,100999
2018-02-17T15:45:08.000Z,101000
2018-02-17T15:47:08.000Z,101005
2018-02-17T15:48:08.000Z,101005
2018-02-17T15:49:08.000Z,101004
2018-02-17T15:50:53.000Z,101004
2018-02-17T15:52:08.000Z,101009
2018-02-17T15:54:08.000Z,101010
2018-02-17T15:56:08.000Z,101012
2018-02-17T15:58:08.000Z,101005
2018-02-17T16:00:08.000Z,101005
2018-02-17T16:02:08.000Z,101007
2018-02-17T16:03:08.000Z,101008
2018-02-17T16:05:08.000Z,101009
2018-02-17T16:06:08.000Z,101003
2018-02-17T16:08:08.000Z,101004
2018-02-17T16:09:08.000Z,101015
2018-02-17T16:11:08.000Z,101018
2018-02-17T16:12:08.000Z,101014
2018-02-17T16:13:53.000Z,101022
2018-02-17T16:15:08.000Z,101018
2018-02-17T16:17:08.000Z,101022
2018-02-17T16:18:08.000Z,101022
2018-02-17T16:20:08.000Z,101021
2018-02-17T16:21:53.000Z,101021
2018-02-17T16:23:08.000Z,101020
2018-02-17T16:25:08.000Z,101030
2018-02-17T16:27:08.000Z,101030
2018-02-17T16:28:08.000Z,101026
2018-02-17T16:30:08.000Z,101028
2018-02-17T16:31:08.000Z,101030
2018-02-17T16:33:08.000Z,101032
2018-02-17T16:35:08.000Z,101032
2018-02-17T16:37:08.000Z,101030
2018-02-17T16:38:08.000Z,101036
2018-02-17T16:40:08.000Z,101041
2018-02-17T16:41:08.000Z,101041
2018-02-17T16:43:08.000Z,101035
2018-02-17T16:45:08.000Z,101047
2018-02-17T16:46:53.000Z,101046
2018-02-17T16:48:08.000Z,101044
2018-02-17T16:49:08.000Z,101047
2018-02-17T16:50:08.000Z,101051
2018-02-17T16:52:08.000Z,101045
2018-02-17T16:53:08.000Z,101044
2018-02-17T16:54:08.000Z,101048
2018-02-17T16:56:08.000Z,101045
2018-02-17T16:58:08.000Z,101047
2018-02-17T16:59:08.000Z,101054
2018-02-17T17:00:08.000Z,101057
2018-02-17T17:02:08.000Z,101062
2018-02-17T17:03:08.000Z,101059
2018-02-17T17:04:08.000Z,101056
2018-02-17T17:06:08.000Z,101063
2018-02-17T17:07:08.000Z,101063
2018-02-17T17:09:08.000Z,101062
2018-02-17T17:11:08.000Z,101062
2018-02-17T17:13:08.000Z,101064
2018-02-17T17:15:08.000Z,101076
2018-02-17T17:17:08.000Z,101077
2018-02-17T17:19:08.000Z,101078
2018-02-17T17:20:08.000Z,101087
2018-02-17T17:22:08.000Z,101087
2018-02-17T17:24:08.000Z,101087
2018-02-17T17:26:08.000Z,101091
2018-02-17T17:27:08.000Z,101092
2018-02-17T17:29:08.000Z,101094
2018-02-17T17:30:08.000Z,101091
2018-02-17T17:32:08.000Z,101095
2018-02-17T17:34:08.000Z,101098
2018-02-17T17:36:08.000Z,101101
2018-02-17T17:38:08.000Z,101104
2018-02-17T17:39:08.000Z,101103
2018-02-17T17:40:53.000Z,101097
2018-02-17T17:42:08.000Z,101105
2018-02-17T17:43:08.000Z,101105
2018-02-17T17:45:08.000Z,101108
2018-02-17T17:47:08.000Z,101110
2018-02-17T17:49:08.000Z,101112
2018-02-17T17:51:08.000Z,101109
2018-02-17T17:52:08.000Z,101111
2018-02-17T17:54:08.000Z,101117
2018-02-17T17:56:08.000Z,101119
2018-02-17T17:58:08.000Z,101127
2018-02-17T17:59:08.000Z,101126
2018-02-17T18:01:08.000Z,101132
2018-02-17T18:02:09.000Z,101133
2018-02-17T18:03:53.000Z,101140
2018-02-17T18:05:09.000Z,101139
2018-02-17T18:07:09.000Z,101142
2018-02-17T18:09:09.000Z,101141
2018-02-17T18:11:09.000Z,101142
2018-02-17T18:12:53.000Z,101141
2018-02-17T18:14:09.000Z,101141
2018-02-17T18:16:09.000Z,101140
2018-02-17T18:17:09.000Z,101143
2018-02-17T18:18:38.000Z,101144
2018-02-17T18:20:09.000Z,101145
2018-02-17T18:21:09.000Z,101140
2018-02-17T18:23:09.000Z,101147
2018-02-17T18:25:09.000Z,101147
2018-02-17T18:26:09.000Z,101144
2018-02-17T18:27:09.000Z,101146
2018-02-17T18:29:09.000Z,101149
2018-02-17T18:31:09.000Z,101156
2018-02-17T18:32:09.000Z,101155
2018-02-17T18:34:09.000Z,101161
2018-02-17T18:35:09.000Z,101160
2018-02-17T18:37:09.000Z,101160
2018-02-17T18:39:09.000Z,101157
2018-02-17T18:41:09.000Z,101154
2018-02-17T18:42:09.000Z,101155
2018-02-17T18:44:09.000Z,101157
2018-02-17T18:46:09.000Z,101154
2018-02-17T18:47:09.000Z,101160
2018-02-17T18:49:09.000Z,101152
2018-02-17T18:51:09.000Z,101157
2018-02-17T18:53:09.000Z,101150
2018-02-17T18:54:09.000Z,101151
2018-02-17T18:55:54.000Z,101071
2018-02-17T18:57:09.000Z,101157
2018-02-17T18:59:09.000Z,101160
2018-02-17T19:00:09.000Z,101157
2018-02-17T19:02:09.000Z,101158
2018-02-17T19:04:09.000Z,101161
2018-02-17T19:06:08.000Z,101167
2018-02-17T19:07:08.000Z,101164
2018-02-17T19:08:08.000Z,101156
2018-02-17T19:10:08.000Z,101168
2018-02-17T19:11:08.000Z,101166
2018-02-17T19:12:08.000Z,101166
2018-02-17T19:14:08.000Z,101166
2018-02-17T19:15:08.000Z,101169
2018-02-17T19:17:08.000Z,101166
2018-02-17T19:19:08.000Z,101169
2018-02-17T19:21:08.000Z,101165
2018-02-17T19:23:08.000Z,101161
2018-02-17T19:25:08.000Z,101162
2018-02-17T19:26:53.000Z,101159
2018-02-17T19:28:08.000Z,101157
2018-02-17T19:30:08.000Z,101157
2018-02-17T19:32:08.000Z,101161
2018-02-17T19:33:08.000Z,101160
2018-02-17T19:34:53.000Z,101161
2018-02-17T19:36:08.000Z,101154
2018-02-17T19:37:08.000Z,101154
2018-02-17T19:39:08.000Z,101158
2018-02-17T19:41:08.000Z,101154
2018-02-17T19:42:08.000Z,101151
2018-02-17T19:44:08.000Z,101161
2018-02-17T19:45:53.000Z,101157
2018-02-17T19:47:08.000Z,101158
2018-02-17T19:49:08.000Z,101160
2018-02-17T19:50:08.000Z,101161